sensor_id;sensor_type;location;lat;lon;timestamp;P1;durP1;ratioP1;P2;durP2;ratioP2
2175;SDS011;1094;49.902;10.876;2023-05-10T00:02:16;22.10;;;20.80;;
2175;SDS011;1094;49.902;10.876;2023-05-10T00:04:42;23.83;;;22.43;;
2175;SDS011;1094;49.902;10.876;2023-05-10T00:07:08;24.50;;;22.80;;
2175;SDS011;1094;49.902;10.876;2023-05-10T00:09:35;27.23;;;25.23;;
2175;SDS011;1094;49.902;10.876;2023-05-10T00:12:01;27.23;;;25.33;;
2175;SDS011;1094;49.902;10.876;2023-05-10T00:14:27;25.80;;;24.10;;
2175;SDS011;1094;49.902;10.876;2023-05-10T00:16:53;27.10;;;24.90;;
2175;SDS011;1094;49.902;10.876;2023-05-10T00:19:19;26.00;;;24.40;;
2175;SDS011;1094;49.902;10.876;2023-05-10T00:21:45;26.30;;;24.50;;
2175;SDS011;1094;49.902;10.876;2023-05-10T00:24:11;26.70;;;24.80;;
2175;SDS011;1094;49.902;10.876;2023-05-10T00:26:37;27.07;;;25.17;;
2175;SDS011;1094;49.902;10.876;2023-05-10T00:29:03;26.40;;;24.50;;
2175;SDS011;1094;49.902;10.876;2023-05-10T00:31:29;26.93;;;25.13;;
2175;SDS011;1094;49.902;10.876;2023-05-10T00:33:55;26.50;;;24.60;;
2175;SDS011;1094;49.902;10.876;2023-05-10T00:36:21;26.83;;;24.93;;
2175;SDS011;1094;49.902;10.876;2023-05-10T00:38:48;26.40;;;24.60;;
2175;SDS011;1094;49.902;10.876;2023-05-10T00:41:14;27.30;;;25.30;;
2175;SDS011;1094;49.902;10.876;2023-05-10T00:43:40;26.80;;;24.67;;
2175;SDS011;1094;49.902;10.876;2023-05-10T00:46:06;27.10;;;25.20;;
2175;SDS011;1094;49.902;10.876;2023-05-10T00:48:35;26.03;;;24.33;;
2175;SDS011;1094;49.902;10.876;2023-05-10T00:51:01;26.07;;;24.43;;
2175;SDS011;1094;49.902;10.876;2023-05-10T00:53:28;26.10;;;24.00;;
2175;SDS011;1094;49.902;10.876;2023-05-10T00:55:54;25.80;;;24.10;;
2175;SDS011;1094;49.902;10.876;2023-05-10T00:58:20;25.90;;;24.07;;
2175;SDS011;1094;49.902;10.876;2023-05-10T01:00:48;25.20;;;23.50;;
2175;SDS011;1094;49.902;10.876;2023-05-10T01:03:14;25.57;;;23.73;;
2175;SDS011;1094;49.902;10.876;2023-05-10T01:05:40;27.23;;;25.33;;
2175;SDS011;1094;49.902;10.876;2023-05-10T01:08:06;26.27;;;24.40;;
2175;SDS011;1094;49.902;10.876;2023-05-10T01:10:33;27.23;;;25.33;;
2175;SDS011;1094;49.902;10.876;2023-05-10T01:12:59;25.77;;;24.17;;
2175;SDS011;1094;49.902;10.876;2023-05-10T01:15:25;25.23;;;23.43;;
2175;SDS011;1094;49.902;10.876;2023-05-10T01:17:51;27.77;;;25.77;;
2175;SDS011;1094;49.902;10.876;2023-05-10T01:20:18;26.93;;;25.07;;
2175;SDS011;1094;49.902;10.876;2023-05-10T01:25:27;27.90;;;25.40;;
2175;SDS011;1094;49.902;10.876;2023-05-10T01:43:48;27.23;;;25.23;;
2175;SDS011;1094;49.902;10.876;2023-05-10T01:46:16;26.57;;;24.70;;
2175;SDS011;1094;49.902;10.876;2023-05-10T01:48:47;26.93;;;24.73;;
2175;SDS011;1094;49.902;10.876;2023-05-10T01:51:15;26.93;;;24.97;;
2175;SDS011;1094;49.902;10.876;2023-05-10T01:53:42;27.33;;;25.23;;
2175;SDS011;1094;49.902;10.876;2023-05-10T01:56:09;26.93;;;24.87;;
2175;SDS011;1094;49.902;10.876;2023-05-10T01:58:35;27.10;;;25.00;;
2175;SDS011;1094;49.902;10.876;2023-05-10T02:01:02;27.20;;;24.97;;
2175;SDS011;1094;49.902;10.876;2023-05-10T02:03:29;27.60;;;25.50;;
2175;SDS011;1094;49.902;10.876;2023-05-10T02:05:56;27.60;;;25.60;;
2175;SDS011;1094;49.902;10.876;2023-05-10T02:08:23;27.07;;;25.17;;
2175;SDS011;1094;49.902;10.876;2023-05-10T02:10:50;28.60;;;26.27;;
2175;SDS011;1094;49.902;10.876;2023-05-10T02:13:17;25.50;;;23.60;;
2175;SDS011;1094;49.902;10.876;2023-05-10T02:15:43;25.97;;;24.10;;
2175;SDS011;1094;49.902;10.876;2023-05-10T02:18:15;25.37;;;23.60;;
2175;SDS011;1094;49.902;10.876;2023-05-10T02:20:42;25.80;;;23.40;;
2175;SDS011;1094;49.902;10.876;2023-05-10T02:23:10;25.90;;;24.00;;
2175;SDS011;1094;49.902;10.876;2023-05-10T02:25:36;25.87;;;23.83;;
2175;SDS011;1094;49.902;10.876;2023-05-10T02:28:04;26.80;;;24.80;;
2175;SDS011;1094;49.902;10.876;2023-05-10T02:30:31;25.10;;;23.20;;
2175;SDS011;1094;49.902;10.876;2023-05-10T02:32:57;26.20;;;24.20;;
2175;SDS011;1094;49.902;10.876;2023-05-10T02:35:24;25.60;;;23.70;;
2175;SDS011;1094;49.902;10.876;2023-05-10T02:37:51;25.63;;;23.90;;
2175;SDS011;1094;49.902;10.876;2023-05-10T02:40:17;28.10;;;25.70;;
2175;SDS011;1094;49.902;10.876;2023-05-10T02:42:45;25.87;;;23.90;;
2175;SDS011;1094;49.902;10.876;2023-05-10T02:45:14;27.37;;;24.83;;
2175;SDS011;1094;49.902;10.876;2023-05-10T02:47:42;24.87;;;22.87;;
2175;SDS011;1094;49.902;10.876;2023-05-10T02:50:08;25.80;;;23.50;;
2175;SDS011;1094;49.902;10.876;2023-05-10T02:52:47;24.87;;;23.07;;
2175;SDS011;1094;49.902;10.876;2023-05-10T02:55:16;24.80;;;23.00;;
2175;SDS011;1094;49.902;10.876;2023-05-10T02:57:55;24.00;;;22.10;;
2175;SDS011;1094;49.902;10.876;2023-05-10T03:00:22;24.37;;;22.47;;
2175;SDS011;1094;49.902;10.876;2023-05-10T03:02:49;23.40;;;21.50;;
2175;SDS011;1094;49.902;10.876;2023-05-10T03:05:15;23.40;;;21.60;;
2175;SDS011;1094;49.902;10.876;2023-05-10T03:07:41;22.60;;;20.90;;
2175;SDS011;1094;49.902;10.876;2023-05-10T03:10:08;22.50;;;20.67;;
2175;SDS011;1094;49.902;10.876;2023-05-10T03:20:12;22.80;;;21.10;;
2175;SDS011;1094;49.902;10.876;2023-05-10T03:22:46;21.50;;;19.80;;
2175;SDS011;1094;49.902;10.876;2023-05-10T03:25:13;22.10;;;20.20;;
2175;SDS011;1094;49.902;10.876;2023-05-10T03:27:41;19.93;;;18.43;;
2175;SDS011;1094;49.902;10.876;2023-05-10T03:30:08;18.33;;;17.03;;
2175;SDS011;1094;49.902;10.876;2023-05-10T03:32:36;17.77;;;16.57;;
2175;SDS011;1094;49.902;10.876;2023-05-10T03:35:11;16.73;;;15.60;;
2175;SDS011;1094;49.902;10.876;2023-05-10T03:37:38;18.10;;;16.80;;
2175;SDS011;1094;49.902;10.876;2023-05-10T03:40:04;15.87;;;14.80;;
2175;SDS011;1094;49.902;10.876;2023-05-10T03:42:30;15.33;;;14.43;;
2175;SDS011;1094;49.902;10.876;2023-05-10T03:44:56;15.80;;;14.80;;
2175;SDS011;1094;49.902;10.876;2023-05-10T03:47:22;15.43;;;14.53;;
2175;SDS011;1094;49.902;10.876;2023-05-10T03:49:48;14.67;;;13.77;;
2175;SDS011;1094;49.902;10.876;2023-05-10T03:52:14;14.57;;;13.77;;
2175;SDS011;1094;49.902;10.876;2023-05-10T03:54:40;14.13;;;13.33;;
2175;SDS011;1094;49.902;10.876;2023-05-10T03:57:06;13.87;;;13.10;;
2175;SDS011;1094;49.902;10.876;2023-05-10T03:59:32;13.73;;;13.03;;
2175;SDS011;1094;49.902;10.876;2023-05-10T04:01:58;14.13;;;13.30;;
2175;SDS011;1094;49.902;10.876;2023-05-10T04:04:24;13.40;;;12.70;;
2175;SDS011;1094;49.902;10.876;2023-05-10T04:06:50;13.93;;;13.23;;
2175;SDS011;1094;49.902;10.876;2023-05-10T04:09:16;13.20;;;12.60;;
2175;SDS011;1094;49.902;10.876;2023-05-10T04:11:42;12.80;;;12.20;;
2175;SDS011;1094;49.902;10.876;2023-05-10T04:14:08;13.17;;;12.57;;
2175;SDS011;1094;49.902;10.876;2023-05-10T04:16:34;13.00;;;12.27;;
2175;SDS011;1094;49.902;10.876;2023-05-10T04:19:00;12.90;;;12.30;;
2175;SDS011;1094;49.902;10.876;2023-05-10T04:21:26;13.27;;;12.57;;
2175;SDS011;1094;49.902;10.876;2023-05-10T04:23:52;12.90;;;12.30;;
2175;SDS011;1094;49.902;10.876;2023-05-10T04:26:18;13.37;;;12.77;;
2175;SDS011;1094;49.902;10.876;2023-05-10T04:28:45;13.17;;;12.57;;
2175;SDS011;1094;49.902;10.876;2023-05-10T04:31:11;12.80;;;12.30;;
2175;SDS011;1094;49.902;10.876;2023-05-10T04:33:37;13.30;;;12.70;;
2175;SDS011;1094;49.902;10.876;2023-05-10T04:36:03;13.90;;;13.30;;
2175;SDS011;1094;49.902;10.876;2023-05-10T04:38:29;13.60;;;13.00;;
2175;SDS011;1094;49.902;10.876;2023-05-10T04:41:03;13.50;;;12.90;;
2175;SDS011;1094;49.902;10.876;2023-05-10T04:43:30;13.30;;;12.70;;
2175;SDS011;1094;49.902;10.876;2023-05-10T04:45:56;14.00;;;13.30;;
2175;SDS011;1094;49.902;10.876;2023-05-10T04:48:22;13.73;;;13.13;;
2175;SDS011;1094;49.902;10.876;2023-05-10T04:50:48;14.60;;;13.90;;
2175;SDS011;1094;49.902;10.876;2023-05-10T04:53:14;13.70;;;13.10;;
2175;SDS011;1094;49.902;10.876;2023-05-10T04:55:40;14.83;;;14.03;;
2175;SDS011;1094;49.902;10.876;2023-05-10T04:58:05;14.30;;;13.70;;
2175;SDS011;1094;49.902;10.876;2023-05-10T05:00:32;14.47;;;13.83;;
2175;SDS011;1094;49.902;10.876;2023-05-10T05:02:58;13.90;;;13.30;;
2175;SDS011;1094;49.902;10.876;2023-05-10T05:05:24;15.13;;;14.50;;
2175;SDS011;1094;49.902;10.876;2023-05-10T05:07:50;15.50;;;14.80;;
2175;SDS011;1094;49.902;10.876;2023-05-10T05:10:16;15.30;;;14.60;;
2175;SDS011;1094;49.902;10.876;2023-05-10T05:12:42;14.87;;;14.23;;
2175;SDS011;1094;49.902;10.876;2023-05-10T05:15:08;15.03;;;14.37;;
2175;SDS011;1094;49.902;10.876;2023-05-10T05:17:34;15.70;;;15.00;;
2175;SDS011;1094;49.902;10.876;2023-05-10T05:20:01;15.27;;;14.57;;
2175;SDS011;1094;49.902;10.876;2023-05-10T05:22:27;15.70;;;14.70;;
2175;SDS011;1094;49.902;10.876;2023-05-10T05:24:53;15.83;;;15.07;;
2175;SDS011;1094;49.902;10.876;2023-05-10T05:27:19;16.30;;;15.60;;
2175;SDS011;1094;49.902;10.876;2023-05-10T05:29:52;15.50;;;14.80;;
2175;SDS011;1094;49.902;10.876;2023-05-10T05:32:19;16.93;;;16.13;;
2175;SDS011;1094;49.902;10.876;2023-05-10T05:34:45;15.70;;;15.00;;
2175;SDS011;1094;49.902;10.876;2023-05-10T05:37:14;16.00;;;15.30;;
2175;SDS011;1094;49.902;10.876;2023-05-10T05:39:40;17.00;;;15.87;;
2175;SDS011;1094;49.902;10.876;2023-05-10T05:42:07;16.90;;;16.10;;
2175;SDS011;1094;49.902;10.876;2023-05-10T05:44:33;16.77;;;15.97;;
2175;SDS011;1094;49.902;10.876;2023-05-10T05:46:59;16.87;;;16.07;;
2175;SDS011;1094;49.902;10.876;2023-05-10T05:49:25;16.90;;;16.10;;
2175;SDS011;1094;49.902;10.876;2023-05-10T05:51:51;17.20;;;16.30;;
2175;SDS011;1094;49.902;10.876;2023-05-10T05:54:18;17.10;;;16.30;;
2175;SDS011;1094;49.902;10.876;2023-05-10T05:56:44;17.40;;;16.40;;
2175;SDS011;1094;49.902;10.876;2023-05-10T05:59:10;17.50;;;16.70;;
2175;SDS011;1094;49.902;10.876;2023-05-10T06:01:36;17.43;;;16.63;;
2175;SDS011;1094;49.902;10.876;2023-05-10T06:04:02;17.00;;;16.20;;
2175;SDS011;1094;49.902;10.876;2023-05-10T06:06:28;17.30;;;16.50;;
2175;SDS011;1094;49.902;10.876;2023-05-10T06:08:54;17.20;;;16.40;;
2175;SDS011;1094;49.902;10.876;2023-05-10T06:11:20;16.87;;;16.07;;
2175;SDS011;1094;49.902;10.876;2023-05-10T06:13:47;17.67;;;16.77;;
2175;SDS011;1094;49.902;10.876;2023-05-10T06:16:13;17.20;;;16.40;;
2175;SDS011;1094;49.902;10.876;2023-05-10T06:18:38;18.03;;;17.13;;
2175;SDS011;1094;49.902;10.876;2023-05-10T06:21:05;18.30;;;17.03;;
2175;SDS011;1094;49.902;10.876;2023-05-10T06:23:31;16.30;;;15.30;;
2175;SDS011;1094;49.902;10.876;2023-05-10T06:25:57;16.10;;;15.40;;
2175;SDS011;1094;49.902;10.876;2023-05-10T06:28:23;16.20;;;15.40;;
2175;SDS011;1094;49.902;10.876;2023-05-10T06:30:49;16.33;;;15.43;;
2175;SDS011;1094;49.902;10.876;2023-05-10T06:33:15;16.10;;;15.40;;
2175;SDS011;1094;49.902;10.876;2023-05-10T06:35:41;15.83;;;15.13;;
2175;SDS011;1094;49.902;10.876;2023-05-10T06:38:08;16.17;;;15.47;;
2175;SDS011;1094;49.902;10.876;2023-05-10T06:40:33;15.83;;;15.13;;
2175;SDS011;1094;49.902;10.876;2023-05-10T06:43:00;17.27;;;15.97;;
2175;SDS011;1094;49.902;10.876;2023-05-10T06:45:26;16.30;;;15.60;;
2175;SDS011;1094;49.902;10.876;2023-05-10T06:47:52;16.40;;;15.50;;
2175;SDS011;1094;49.902;10.876;2023-05-10T06:50:18;15.70;;;15.00;;
2175;SDS011;1094;49.902;10.876;2023-05-10T06:52:44;16.70;;;15.80;;
2175;SDS011;1094;49.902;10.876;2023-05-10T06:55:10;16.10;;;15.40;;
2175;SDS011;1094;49.902;10.876;2023-05-10T06:57:36;15.97;;;15.27;;
2175;SDS011;1094;49.902;10.876;2023-05-10T07:00:02;16.20;;;15.50;;
2175;SDS011;1094;49.902;10.876;2023-05-10T07:02:32;15.70;;;15.00;;
2175;SDS011;1094;49.902;10.876;2023-05-10T07:04:58;16.00;;;15.30;;
2175;SDS011;1094;49.902;10.876;2023-05-10T07:07:24;15.80;;;15.10;;
2175;SDS011;1094;49.902;10.876;2023-05-10T07:09:49;16.10;;;15.30;;
2175;SDS011;1094;49.902;10.876;2023-05-10T07:12:16;16.20;;;15.50;;
2175;SDS011;1094;49.902;10.876;2023-05-10T07:14:42;16.07;;;15.37;;
2175;SDS011;1094;49.902;10.876;2023-05-10T07:17:08;16.60;;;15.90;;
2175;SDS011;1094;49.902;10.876;2023-05-10T07:19:34;16.40;;;15.50;;
2175;SDS011;1094;49.902;10.876;2023-05-10T07:22:00;16.70;;;16.00;;
2175;SDS011;1094;49.902;10.876;2023-05-10T07:24:26;16.50;;;15.80;;
2175;SDS011;1094;49.902;10.876;2023-05-10T07:26:52;16.60;;;15.90;;
2175;SDS011;1094;49.902;10.876;2023-05-10T07:29:18;17.60;;;16.53;;
2175;SDS011;1094;49.902;10.876;2023-05-10T07:31:44;17.40;;;16.13;;
2175;SDS011;1094;49.902;10.876;2023-05-10T07:34:10;16.53;;;15.83;;
2175;SDS011;1094;49.902;10.876;2023-05-10T07:36:36;16.33;;;15.63;;
2175;SDS011;1094;49.902;10.876;2023-05-10T07:39:02;16.40;;;15.60;;
2175;SDS011;1094;49.902;10.876;2023-05-10T07:41:28;16.20;;;15.50;;
2175;SDS011;1094;49.902;10.876;2023-05-10T07:43:54;16.17;;;15.47;;
2175;SDS011;1094;49.902;10.876;2023-05-10T07:46:20;16.40;;;15.60;;
2175;SDS011;1094;49.902;10.876;2023-05-10T07:48:46;16.70;;;15.77;;
2175;SDS011;1094;49.902;10.876;2023-05-10T07:51:12;16.80;;;15.70;;
2175;SDS011;1094;49.902;10.876;2023-05-10T07:53:38;16.30;;;15.60;;
2175;SDS011;1094;49.902;10.876;2023-05-10T07:59:10;16.80;;;16.00;;
2175;SDS011;1094;49.902;10.876;2023-05-10T08:01:40;16.43;;;15.63;;
2175;SDS011;1094;49.902;10.876;2023-05-10T08:04:06;15.97;;;15.27;;
2175;SDS011;1094;49.902;10.876;2023-05-10T08:06:32;16.23;;;15.53;;
2175;SDS011;1094;49.902;10.876;2023-05-10T08:08:58;17.00;;;16.20;;
2175;SDS011;1094;49.902;10.876;2023-05-10T08:11:24;16.47;;;15.77;;
2175;SDS011;1094;49.902;10.876;2023-05-10T08:13:50;16.27;;;15.57;;
2175;SDS011;1094;49.902;10.876;2023-05-10T08:16:16;17.27;;;16.40;;
2175;SDS011;1094;49.902;10.876;2023-05-10T08:18:43;16.77;;;15.77;;
2175;SDS011;1094;49.902;10.876;2023-05-10T08:21:14;16.37;;;15.67;;
2175;SDS011;1094;49.902;10.876;2023-05-10T08:23:40;16.80;;;16.10;;
2175;SDS011;1094;49.902;10.876;2023-05-10T08:26:06;17.17;;;16.27;;
2175;SDS011;1094;49.902;10.876;2023-05-10T08:28:32;16.70;;;16.00;;
2175;SDS011;1094;49.902;10.876;2023-05-10T08:30:58;16.63;;;15.80;;
2175;SDS011;1094;49.902;10.876;2023-05-10T08:33:24;16.50;;;15.70;;
2175;SDS011;1094;49.902;10.876;2023-05-10T08:35:50;16.47;;;15.47;;
2175;SDS011;1094;49.902;10.876;2023-05-10T08:38:16;16.40;;;15.60;;
2175;SDS011;1094;49.902;10.876;2023-05-10T08:40:42;16.60;;;15.80;;
2175;SDS011;1094;49.902;10.876;2023-05-10T08:43:10;16.43;;;15.63;;
2175;SDS011;1094;49.902;10.876;2023-05-10T08:45:37;16.63;;;15.73;;
2175;SDS011;1094;49.902;10.876;2023-05-10T08:48:04;16.17;;;15.47;;
2175;SDS011;1094;49.902;10.876;2023-05-10T08:50:31;16.60;;;15.70;;
2175;SDS011;1094;49.902;10.876;2023-05-10T08:52:57;16.50;;;15.80;;
2175;SDS011;1094;49.902;10.876;2023-05-10T08:55:25;16.73;;;15.93;;
2175;SDS011;1094;49.902;10.876;2023-05-10T08:57:51;16.73;;;15.93;;
2175;SDS011;1094;49.902;10.876;2023-05-10T09:00:17;16.80;;;15.70;;
2175;SDS011;1094;49.902;10.876;2023-05-10T09:02:44;16.70;;;15.80;;
2175;SDS011;1094;49.902;10.876;2023-05-10T09:05:13;16.90;;;16.10;;
2175;SDS011;1094;49.902;10.876;2023-05-10T09:07:40;16.37;;;15.67;;
2175;SDS011;1094;49.902;10.876;2023-05-10T09:10:07;16.73;;;15.83;;
2175;SDS011;1094;49.902;10.876;2023-05-10T09:12:33;17.10;;;16.10;;
2175;SDS011;1094;49.902;10.876;2023-05-10T09:15:00;16.80;;;16.00;;
2175;SDS011;1094;49.902;10.876;2023-05-10T09:17:27;16.97;;;16.07;;
2175;SDS011;1094;49.902;10.876;2023-05-10T09:19:58;17.07;;;16.13;;
2175;SDS011;1094;49.902;10.876;2023-05-10T09:22:24;17.10;;;16.20;;
2175;SDS011;1094;49.902;10.876;2023-05-10T09:25:03;17.27;;;16.47;;
2175;SDS011;1094;49.902;10.876;2023-05-10T09:27:29;16.60;;;15.80;;
2175;SDS011;1094;49.902;10.876;2023-05-10T09:29:55;16.80;;;16.00;;
2175;SDS011;1094;49.902;10.876;2023-05-10T09:32:22;16.50;;;15.80;;
2175;SDS011;1094;49.902;10.876;2023-05-10T09:35:11;17.33;;;16.40;;
2175;SDS011;1094;49.902;10.876;2023-05-10T09:37:41;16.87;;;16.07;;
2175;SDS011;1094;49.902;10.876;2023-05-10T09:40:07;16.47;;;15.57;;
2175;SDS011;1094;49.902;10.876;2023-05-10T09:42:36;17.10;;;16.30;;
2175;SDS011;1094;49.902;10.876;2023-05-10T09:45:05;16.87;;;16.07;;
2175;SDS011;1094;49.902;10.876;2023-05-10T09:47:32;18.20;;;17.00;;
2175;SDS011;1094;49.902;10.876;2023-05-10T09:49:58;17.57;;;16.60;;
2175;SDS011;1094;49.902;10.876;2023-05-10T09:52:28;16.73;;;15.93;;
2175;SDS011;1094;49.902;10.876;2023-05-10T09:54:54;17.00;;;16.20;;
2175;SDS011;1094;49.902;10.876;2023-05-10T09:57:21;18.30;;;17.30;;
2175;SDS011;1094;49.902;10.876;2023-05-10T09:59:47;17.50;;;16.60;;
2175;SDS011;1094;49.902;10.876;2023-05-10T10:02:14;17.00;;;16.20;;
2175;SDS011;1094;49.902;10.876;2023-05-10T10:04:40;17.23;;;16.33;;
2175;SDS011;1094;49.902;10.876;2023-05-10T10:07:07;16.60;;;15.80;;
2175;SDS011;1094;49.902;10.876;2023-05-10T10:09:33;16.83;;;16.03;;
2175;SDS011;1094;49.902;10.876;2023-05-10T10:12:00;16.70;;;15.80;;
2175;SDS011;1094;49.902;10.876;2023-05-10T10:14:26;16.53;;;15.53;;
2175;SDS011;1094;49.902;10.876;2023-05-10T10:16:53;16.13;;;15.33;;
2175;SDS011;1094;49.902;10.876;2023-05-10T10:19:19;16.40;;;15.60;;
2175;SDS011;1094;49.902;10.876;2023-05-10T10:21:49;16.80;;;15.90;;
2175;SDS011;1094;49.902;10.876;2023-05-10T10:24:15;16.97;;;15.97;;
2175;SDS011;1094;49.902;10.876;2023-05-10T10:26:41;17.87;;;16.97;;
2175;SDS011;1094;49.902;10.876;2023-05-10T10:31:39;17.23;;;16.33;;
2175;SDS011;1094;49.902;10.876;2023-05-10T10:34:07;17.17;;;16.17;;
2175;SDS011;1094;49.902;10.876;2023-05-10T10:36:40;17.10;;;16.20;;
2175;SDS011;1094;49.902;10.876;2023-05-10T10:39:09;17.27;;;16.47;;
2175;SDS011;1094;49.902;10.876;2023-05-10T10:41:36;17.20;;;16.40;;
2175;SDS011;1094;49.902;10.876;2023-05-10T10:49:25;17.00;;;16.20;;
2175;SDS011;1094;49.902;10.876;2023-05-10T10:54:36;17.37;;;16.40;;
2175;SDS011;1094;49.902;10.876;2023-05-10T10:57:10;16.60;;;15.90;;
2175;SDS011;1094;49.902;10.876;2023-05-10T10:59:38;17.00;;;16.20;;
2175;SDS011;1094;49.902;10.876;2023-05-10T11:02:07;17.07;;;16.27;;
2175;SDS011;1094;49.902;10.876;2023-05-10T11:04:42;17.33;;;16.33;;
2175;SDS011;1094;49.902;10.876;2023-05-10T11:07:18;16.87;;;16.07;;
2175;SDS011;1094;49.902;10.876;2023-05-10T11:09:48;17.17;;;16.37;;
2175;SDS011;1094;49.902;10.876;2023-05-10T11:12:14;17.73;;;16.93;;
2175;SDS011;1094;49.902;10.876;2023-05-10T11:14:40;17.45;;;16.55;;
2175;SDS011;1094;49.902;10.876;2023-05-10T11:17:27;17.27;;;16.37;;
2175;SDS011;1094;49.902;10.876;2023-05-10T11:20:06;17.90;;;16.70;;
2175;SDS011;1094;49.902;10.876;2023-05-10T11:22:48;17.93;;;16.93;;
2175;SDS011;1094;49.902;10.876;2023-05-10T11:25:15;17.40;;;16.60;;
2175;SDS011;1094;49.902;10.876;2023-05-10T11:27:41;17.73;;;16.73;;
2175;SDS011;1094;49.902;10.876;2023-05-10T11:30:07;17.60;;;16.50;;
2175;SDS011;1094;49.902;10.876;2023-05-10T11:32:36;17.47;;;16.60;;
2175;SDS011;1094;49.902;10.876;2023-05-10T11:35:09;17.80;;;16.77;;
2175;SDS011;1094;49.902;10.876;2023-05-10T11:37:35;17.07;;;16.27;;
2175;SDS011;1094;49.902;10.876;2023-05-10T11:40:02;17.70;;;16.80;;
2175;SDS011;1094;49.902;10.876;2023-05-10T11:42:28;17.60;;;16.70;;
2175;SDS011;1094;49.902;10.876;2023-05-10T11:44:54;17.70;;;16.80;;
2175;SDS011;1094;49.902;10.876;2023-05-10T11:47:20;18.50;;;17.50;;
2175;SDS011;1094;49.902;10.876;2023-05-10T11:49:47;17.60;;;16.70;;
2175;SDS011;1094;49.902;10.876;2023-05-10T11:52:13;17.50;;;16.60;;
2175;SDS011;1094;49.902;10.876;2023-05-10T11:54:50;17.43;;;16.63;;
2175;SDS011;1094;49.902;10.876;2023-05-10T11:57:18;18.10;;;16.97;;
2175;SDS011;1094;49.902;10.876;2023-05-10T11:59:45;17.27;;;16.37;;
2175;SDS011;1094;49.902;10.876;2023-05-10T12:02:11;17.47;;;16.47;;
2175;SDS011;1094;49.902;10.876;2023-05-10T12:04:37;17.13;;;16.33;;
2175;SDS011;1094;49.902;10.876;2023-05-10T12:09:35;17.55;;;16.75;;
2175;SDS011;1094;49.902;10.876;2023-05-10T12:12:01;17.33;;;16.50;;
2175;SDS011;1094;49.902;10.876;2023-05-10T12:14:27;17.37;;;16.57;;
2175;SDS011;1094;49.902;10.876;2023-05-10T12:16:58;17.80;;;16.70;;
2175;SDS011;1094;49.902;10.876;2023-05-10T12:19:24;18.90;;;17.67;;
2175;SDS011;1094;49.902;10.876;2023-05-10T12:21:50;17.83;;;16.83;;
2175;SDS011;1094;49.902;10.876;2023-05-10T12:24:15;17.60;;;16.70;;
2175;SDS011;1094;49.902;10.876;2023-05-10T12:26:42;17.90;;;16.97;;
2175;SDS011;1094;49.902;10.876;2023-05-10T12:29:15;17.60;;;16.63;;
2175;SDS011;1094;49.902;10.876;2023-05-10T12:31:55;17.77;;;16.97;;
2175;SDS011;1094;49.902;10.876;2023-05-10T12:34:31;17.33;;;16.50;;
2175;SDS011;1094;49.902;10.876;2023-05-10T12:36:58;17.40;;;16.60;;
2175;SDS011;1094;49.902;10.876;2023-05-10T12:39:24;17.70;;;16.63;;
2175;SDS011;1094;49.902;10.876;2023-05-10T12:41:50;17.27;;;16.47;;
2175;SDS011;1094;49.902;10.876;2023-05-10T12:44:16;17.23;;;16.43;;
2175;SDS011;1094;49.902;10.876;2023-05-10T12:46:43;17.63;;;16.73;;
2175;SDS011;1094;49.902;10.876;2023-05-10T12:49:09;17.53;;;16.73;;
2175;SDS011;1094;49.902;10.876;2023-05-10T12:51:35;17.57;;;16.47;;
2175;SDS011;1094;49.902;10.876;2023-05-10T12:54:02;18.23;;;17.30;;
2175;SDS011;1094;49.902;10.876;2023-05-10T12:56:28;16.80;;;16.00;;
2175;SDS011;1094;49.902;10.876;2023-05-10T12:58:54;16.80;;;16.00;;
2175;SDS011;1094;49.902;10.876;2023-05-10T13:01:20;17.10;;;16.20;;
2175;SDS011;1094;49.902;10.876;2023-05-10T13:03:46;17.43;;;16.40;;
2175;SDS011;1094;49.902;10.876;2023-05-10T13:06:12;17.07;;;16.13;;
2175;SDS011;1094;49.902;10.876;2023-05-10T13:08:38;16.80;;;16.00;;
2175;SDS011;1094;49.902;10.876;2023-05-10T13:11:05;17.37;;;16.50;;
2175;SDS011;1094;49.902;10.876;2023-05-10T13:13:31;17.10;;;16.30;;
2175;SDS011;1094;49.902;10.876;2023-05-10T13:15:57;16.63;;;15.93;;
2175;SDS011;1094;49.902;10.876;2023-05-10T13:18:23;16.90;;;16.20;;
2175;SDS011;1094;49.902;10.876;2023-05-10T13:20:49;16.47;;;15.77;;
2175;SDS011;1094;49.902;10.876;2023-05-10T13:23:15;17.10;;;16.30;;
2175;SDS011;1094;49.902;10.876;2023-05-10T13:25:41;16.60;;;15.73;;
2175;SDS011;1094;49.902;10.876;2023-05-10T13:28:07;17.33;;;16.50;;
2175;SDS011;1094;49.902;10.876;2023-05-10T13:30:33;16.83;;;16.03;;
2175;SDS011;1094;49.902;10.876;2023-05-10T13:32:59;17.00;;;16.10;;
2175;SDS011;1094;49.902;10.876;2023-05-10T13:35:25;16.90;;;16.00;;
2175;SDS011;1094;49.902;10.876;2023-05-10T13:37:51;16.83;;;16.03;;
2175;SDS011;1094;49.902;10.876;2023-05-10T13:40:18;17.47;;;16.50;;
2175;SDS011;1094;49.902;10.876;2023-05-10T13:42:44;17.57;;;16.77;;
2175;SDS011;1094;49.902;10.876;2023-05-10T13:45:10;18.37;;;17.20;;
2175;SDS011;1094;49.902;10.876;2023-05-10T13:47:37;17.60;;;16.70;;
2175;SDS011;1094;49.902;10.876;2023-05-10T13:50:03;17.60;;;16.60;;
2175;SDS011;1094;49.902;10.876;2023-05-10T13:52:29;17.80;;;16.80;;
2175;SDS011;1094;49.902;10.876;2023-05-10T13:54:55;18.20;;;17.20;;
2175;SDS011;1094;49.902;10.876;2023-05-10T13:57:22;18.07;;;17.17;;
2175;SDS011;1094;49.902;10.876;2023-05-10T13:59:48;18.67;;;17.57;;
2175;SDS011;1094;49.902;10.876;2023-05-10T14:02:14;18.93;;;17.03;;
2175;SDS011;1094;49.902;10.876;2023-05-10T14:04:40;18.50;;;17.50;;
2175;SDS011;1094;49.902;10.876;2023-05-10T14:07:06;18.70;;;17.50;;
2175;SDS011;1094;49.902;10.876;2023-05-10T14:09:32;17.50;;;16.50;;
2175;SDS011;1094;49.902;10.876;2023-05-10T14:11:58;17.70;;;16.77;;
2175;SDS011;1094;49.902;10.876;2023-05-10T14:14:24;18.43;;;17.37;;
2175;SDS011;1094;49.902;10.876;2023-05-10T14:16:50;17.87;;;16.97;;
2175;SDS011;1094;49.902;10.876;2023-05-10T14:19:16;17.03;;;16.23;;
2175;SDS011;1094;49.902;10.876;2023-05-10T14:21:42;17.33;;;16.53;;
2175;SDS011;1094;49.902;10.876;2023-05-10T14:24:08;17.90;;;16.90;;
2175;SDS011;1094;49.902;10.876;2023-05-10T14:26:35;17.47;;;16.67;;
2175;SDS011;1094;49.902;10.876;2023-05-10T14:29:01;18.23;;;17.33;;
2175;SDS011;1094;49.902;10.876;2023-05-10T14:31:27;17.20;;;16.40;;
2175;SDS011;1094;49.902;10.876;2023-05-10T14:33:55;17.77;;;16.77;;
2175;SDS011;1094;49.902;10.876;2023-05-10T14:36:21;17.67;;;16.80;;
2175;SDS011;1094;49.902;10.876;2023-05-10T14:38:47;17.80;;;16.90;;
2175;SDS011;1094;49.902;10.876;2023-05-10T14:41:13;17.07;;;16.27;;
2175;SDS011;1094;49.902;10.876;2023-05-10T14:43:40;17.53;;;16.60;;
2175;SDS011;1094;49.902;10.876;2023-05-10T14:46:06;17.67;;;16.50;;
2175;SDS011;1094;49.902;10.876;2023-05-10T14:48:32;18.03;;;17.13;;
2175;SDS011;1094;49.902;10.876;2023-05-10T14:50:58;17.50;;;16.70;;
2175;SDS011;1094;49.902;10.876;2023-05-10T14:53:24;17.97;;;16.87;;
2175;SDS011;1094;49.902;10.876;2023-05-10T14:55:50;17.40;;;16.50;;
2175;SDS011;1094;49.902;10.876;2023-05-10T14:58:16;17.60;;;16.70;;
2175;SDS011;1094;49.902;10.876;2023-05-10T15:00:42;17.47;;;16.67;;
2175;SDS011;1094;49.902;10.876;2023-05-10T15:03:08;17.27;;;16.47;;
2175;SDS011;1094;49.902;10.876;2023-05-10T15:05:34;17.73;;;16.80;;
2175;SDS011;1094;49.902;10.876;2023-05-10T15:08:02;17.53;;;16.37;;
2175;SDS011;1094;49.902;10.876;2023-05-10T15:10:28;17.40;;;16.40;;
2175;SDS011;1094;49.902;10.876;2023-05-10T15:12:54;17.00;;;16.20;;
2175;SDS011;1094;49.902;10.876;2023-05-10T15:15:20;17.60;;;16.80;;